Time;durP1;ratioP1;P1;durP2;ratioP2;P2;SDS_P1;SDS_P2;PMS_P1;PMS_P2;Temp;Humidity;BMP_temperature;BMP_pressure;BME280_temperature;BME280_humidity;BME280_pressure;Samples;Min_cycle;Max_cycle;Signal;HPM_P1;HPM_P2
2022/10/11 00:00:48;;;;;;;;;;;;;;;15.15;68.15;100568.47;5049322;28;19964;-86
2022/10/11 00:03:14;;;;;;;;;;;;;;;15.12;68.90;100565.88;5051058;28;19916;-90
2022/10/11 00:05:39;;;;;;;;;;;;;;;15.17;68.67;100564.88;5050860;28;19917;-89
2022/10/11 00:08:05;;;;;;;;;;;;;;;15.06;69.60;100555.38;5050760;28;20047;-89
2022/10/11 00:10:31;;;;;;;;;;;;;;;15.15;68.66;100556.09;5051017;28;20011;-89
2022/10/11 00:12:57;;;;;;;;;;;;;;;15.02;69.12;100562.53;5050906;28;19913;-89
2022/10/11 00:15:22;;;;;;;;;;;;;;;14.97;69.49;100557.31;5051769;28;20461;-89
2022/10/11 00:17:47;;;;;;;;;;;;;;;15.08;69.44;100557.09;5051198;28;20415;-87
2022/10/11 00:20:13;;;;;;;;;;;;;;;15.08;69.73;100559.75;5053095;28;19962;-88
2022/10/11 00:22:39;;;;;;;;;;;;;;;15.14;69.16;100558.78;5054787;28;19917;-90
2022/10/11 00:25:06;;;;;;;;;;;;;;;15.14;68.75;100564.94;5051361;28;19920;-87
2022/10/11 00:27:32;;;;;;;;;;;;;;;15.14;69.01;100561.44;5050589;28;19921;-88
2022/10/11 00:29:57;;;;;;;;;;;;;;;15.10;68.34;100567.69;5051602;28;19912;-87
2022/10/11 00:32:22;;;;;;;;;;;;;;;15.08;69.15;100566.88;5050986;28;19927;-87
2022/10/11 00:34:48;;;;;;;;;;;;;;;15.08;68.44;100566.88;5050448;28;19920;-87
2022/10/11 00:37:13;;;;;;;;;;;;;;;15.12;68.60;100557.91;5050522;28;19923;-87
2022/10/11 00:39:39;;;;;;;;;;;;;;;15.09;68.67;100556.19;5049918;28;20318;-85
2022/10/11 00:42:09;;;;;;;;;;;;;;;15.09;68.62;100553.53;5051277;28;19939;-87
2022/10/11 00:44:35;;;;;;;;;;;;;;;15.02;68.88;100547.47;5052025;28;20008;-86
2022/10/11 00:47:01;;;;;;;;;;;;;;;14.93;69.56;100539.66;5048823;28;20357;-87
2022/10/11 00:49:47;;;;;;;;;;;;;;;15.03;68.93;100541.25;5048821;28;20370;-87
2022/10/11 00:52:21;;;;;;;;;;;;;;;15.09;68.35;100537.59;5049529;28;20374;-87
2022/10/11 00:54:47;;;;;;;;;;;;;;;15.12;68.38;100533.97;5048630;28;19927;-87
2022/10/11 00:57:16;;;;;;;;;;;;;;;15.10;68.66;100538.47;5047552;28;20302;-86
2022/10/11 00:59:47;;;;;;;;;;;;;;;15.04;67.95;100537.69;5048995;28;19916;-87
2022/10/11 01:02:13;;;;;;;;;;;;;;;15.06;68.02;100534.09;5049635;28;19917;-87
2022/10/11 01:04:38;;;;;;;;;;;;;;;15.00;67.87;100529.81;5049091;28;19909;-87
2022/10/11 01:07:04;;;;;;;;;;;;;;;14.95;68.61;100523.69;5048927;28;20435;-87
2022/10/11 01:09:30;;;;;;;;;;;;;;;14.85;68.48;100529.19;5049248;28;20000;-87
2022/10/11 01:11:56;;;;;;;;;;;;;;;14.86;68.46;100528.28;5048570;28;20017;-88
2022/10/11 01:14:30;;;;;;;;;;;;;;;14.85;68.30;100525.66;5049549;28;19917;-88
2022/10/11 01:17:14;;;;;;;;;;;;;;;14.80;68.17;100517.78;5048928;28;19925;-87
2022/10/11 01:19:58;;;;;;;;;;;;;;;14.82;68.39;100528.38;5049470;28;19913;-87
2022/10/11 01:22:29;;;;;;;;;;;;;;;14.82;67.99;100515.09;5048969;28;19920;-89
2022/10/11 01:25:13;;;;;;;;;;;;;;;14.72;68.26;100525.03;5049239;28;19924;-88
2022/10/11 01:27:54;;;;;;;;;;;;;;;14.69;68.46;100519.78;5049041;28;19927;-88
2022/10/11 01:30:32;;;;;;;;;;;;;;;14.69;68.22;100522.44;5048980;28;19946;-88
2022/10/11 01:33:17;;;;;;;;;;;;;;;14.71;68.30;100528.59;5049060;28;19912;-88
2022/10/11 01:36:05;;;;;;;;;;;;;;;14.62;68.81;100521.66;5048604;28;19956;-89
2022/10/11 01:38:30;;;;;;;;;;;;;;;14.55;69.02;100517.34;5047101;28;20604;-89
2022/10/11 01:41:00;;;;;;;;;;;;;;;14.57;69.24;100519.97;5048796;28;19920;-90
2022/10/11 01:43:27;;;;;;;;;;;;;;;14.46;68.86;100510.41;5048281;28;20373;-89
2022/10/11 01:45:54;;;;;;;;;;;;;;;14.50;69.20;100505.91;5047767;28;20031;-88
2022/10/11 01:48:20;;;;;;;;;;;;;;;14.50;68.71;100508.56;5048476;28;19917;-88
2022/10/11 01:50:46;;;;;;;;;;;;;;;14.47;68.75;100504.22;5048933;28;19927;-88
2022/10/11 01:53:14;;;;;;;;;;;;;;;14.49;69.13;100504.19;5048446;28;20012;-89
2022/10/11 01:55:51;;;;;;;;;;;;;;;14.49;68.88;100507.72;5048334;28;19920;-89
2022/10/11 01:58:26;;;;;;;;;;;;;;;14.41;69.45;100500.78;5048163;28;20086;-90
2022/10/11 02:00:57;;;;;;;;;;;;;;;14.25;71.01;100498.41;5047780;28;19912;-88
2022/10/11 02:03:25;;;;;;;;;;;;;;;14.11;71.07;100495.97;5048223;28;19917;-88
2022/10/11 02:05:51;;;;;;;;;;;;;;;14.05;71.03;100500.53;5047494;28;19923;-88
2022/10/11 02:08:36;;;;;;;;;;;;;;;14.12;70.37;100502.19;5046408;28;20314;-87
2022/10/11 02:11:05;;;;;;;;;;;;;;;14.13;70.06;100496.84;5047332;28;19924;-88
2022/10/11 02:13:38;;;;;;;;;;;;;;;14.13;70.37;100488.00;5047591;28;19919;-87
2022/10/11 02:16:06;;;;;;;;;;;;;;;14.15;70.08;100491.50;5047249;28;19928;-88
2022/10/11 02:18:37;;;;;;;;;;;;;;;14.19;69.54;100494.97;5047417;28;20011;-87
2022/10/11 02:21:05;;;;;;;;;;;;;;;13.97;71.18;100492.69;5047597;28;19928;-87
2022/10/11 02:23:37;;;;;;;;;;;;;;;13.97;70.99;100492.69;5047334;28;19921;-87
2022/10/11 02:26:05;;;;;;;;;;;;;;;13.84;71.09;100502.63;5047456;28;20401;-87
2022/10/11 02:28:33;;;;;;;;;;;;;;;13.85;71.22;100507.00;5045328;28;19921;-88
2022/10/11 02:30:59;;;;;;;;;;;;;;;13.93;70.95;100510.44;5047564;28;19913;-86
2022/10/11 02:33:35;;;;;;;;;;;;;;;13.84;71.58;100507.94;5047756;28;19971;-87
2022/10/11 02:36:04;;;;;;;;;;;;;;;13.97;71.03;100504.16;5047417;28;19917;-86
2022/10/11 02:38:43;;;;;;;;;;;;;;;14.02;71.47;100500.56;5047023;28;20020;-86
2022/10/11 02:41:17;;;;;;;;;;;;;;;13.95;71.68;100494.50;5046698;28;20375;-88
2022/10/11 02:43:46;;;;;;;;;;;;;;;13.97;72.41;100498.00;5047356;28;19916;-87
2022/10/11 02:46:12;;;;;;;;;;;;;;;13.99;72.20;100498.84;5047492;28;19959;-86
2022/10/11 02:48:38;;;;;;;;;;;;;;;14.02;72.00;100500.56;5047197;28;19917;-87
2022/10/11 02:51:04;;;;;;;;;;;;;;;14.06;71.69;100500.50;5047119;28;19913;-86
2022/10/11 02:53:29;;;;;;;;;;;;;;;14.02;71.67;100497.91;5047366;28;20003;-88
2022/10/11 02:55:55;;;;;;;;;;;;;;;14.03;72.21;100497.88;5047179;28;19924;-87
2022/10/11 02:58:21;;;;;;;;;;;;;;;13.95;72.01;100492.72;5047019;28;20039;-87
2022/10/11 03:00:47;;;;;;;;;;;;;;;14.01;71.39;100488.19;5046204;28;19927;-88
2022/10/11 03:03:13;;;;;;;;;;;;;;;13.94;71.15;100487.44;5047305;28;20311;-88
2022/10/11 03:05:42;;;;;;;;;;;;;;;13.97;71.81;100479.44;5046346;28;19924;-87
2022/10/11 03:08:08;;;;;;;;;;;;;;;13.83;72.75;100490.25;5046860;28;19921;-87
2022/10/11 03:10:34;;;;;;;;;;;;;;;14.04;71.86;100490.81;5047100;28;19917;-87
2022/10/11 03:12:59;;;;;;;;;;;;;;;14.01;71.99;100491.75;5064069;28;19979;-88
2022/10/11 03:15:25;;;;;;;;;;;;;;;13.96;71.79;100488.28;5051548;28;20437;-86
2022/10/11 03:17:50;;;;;;;;;;;;;;;13.90;71.71;100488.38;5052514;28;19921;-86
2022/10/11 03:20:15;;;;;;;;;;;;;;;13.95;71.67;100498.00;5051457;28;20488;-88
2022/10/11 03:22:41;;;;;;;;;;;;;;;13.99;71.69;100490.88;5045915;28;20396;-88
2022/10/11 03:25:06;;;;;;;;;;;;;;;14.01;71.19;100494.41;5053815;28;19927;-85
2022/10/11 03:27:32;;;;;;;;;;;;;;;14.01;71.82;100494.41;5048773;28;19920;-85
2022/10/11 03:29:57;;;;;;;;;;;;;;;14.20;71.91;100484.34;5050355;28;19920;-87
2022/10/11 03:32:23;;;;;;;;;;;;;;;14.00;71.96;100487.34;5050656;28;19925;-87
2022/10/11 03:34:48;;;;;;;;;;;;;;;14.05;71.65;100482.81;5067564;28;19921;-86
2022/10/11 03:37:13;;;;;;;;;;;;;;;14.17;71.31;100476.44;5048792;28;19916;-87
2022/10/11 03:39:38;;;;;;;;;;;;;;;14.13;71.91;100478.28;5049014;28;19947;-85
2022/10/11 03:42:04;;;;;;;;;;;;;;;14.17;71.89;100483.53;5050447;28;19916;-87
2022/10/11 03:44:29;;;;;;;;;;;;;;;14.08;72.56;100474.81;5051270;28;20372;-90
2022/10/11 03:46:55;;;;;;;;;;;;;;;14.18;72.16;100478.19;5050240;28;19925;-88
2022/10/11 03:49:20;;;;;;;;;;;;;;;14.21;72.11;100485.22;5050580;28;19982;-87
2022/10/11 03:51:45;;;;;;;;;;;;;;;14.20;72.21;100481.69;5049367;28;19933;-89
2022/10/11 03:54:11;;;;;;;;;;;;;;;14.20;72.09;100473.72;5050739;28;19913;-88
2022/10/11 03:56:36;;;;;;;;;;;;;;;14.21;72.48;100477.25;5050275;28;19916;-86
2022/10/11 03:59:01;;;;;;;;;;;;;;;14.26;72.51;100473.63;5049931;28;20363;-87
2022/10/11 04:01:27;;;;;;;;;;;;;;;14.14;72.90;100480.00;5051653;28;19920;-87
2022/10/11 04:03:56;;;;;;;;;;;;;;;14.20;73.08;100476.38;5052829;28;19970;-89
2022/10/11 04:06:21;;;;;;;;;;;;;;;13.99;74.92;100472.31;5054305;28;20470;-86
2022/10/11 04:08:46;;;;;;;;;;;;;;;14.19;74.10;100477.28;5062407;28;19960;-90
2022/10/11 04:11:11;;;;;;;;;;;;;;;14.26;74.42;100472.75;5059824;28;19947;-89
2022/10/11 04:13:37;;;;;;;;;;;;;;;14.25;74.26;100468.34;5050145;28;19963;-89
2022/10/11 04:16:02;;;;;;;;;;;;;;;14.26;75.04;100470.09;5050269;28;20038;-91
2022/10/11 04:18:29;;;;;;;;;;;;;;;14.24;74.57;100477.19;5059506;28;20006;-91
2022/10/11 04:20:54;;;;;;;;;;;;;;;14.26;75.02;100478.94;5054160;28;20299;-89
2022/10/11 04:23:20;;;;;;;;;;;;;;;14.20;75.72;100476.38;5051704;28;19923;-87
2022/10/11 04:25:47;;;;;;;;;;;;;;;14.23;75.98;100473.69;5049156;28;20362;-86
2022/10/11 04:28:12;;;;;;;;;;;;;;;14.24;75.33;100471.88;5051612;28;20537;-86
2022/10/11 04:30:37;;;;;;;;;;;;;;;14.24;75.67;100462.16;5049860;28;19995;-84
2022/10/11 04:33:03;;;;;;;;;;;;;;;14.29;75.83;100473.56;5052792;28;19943;-84
2022/10/11 04:35:28;;;;;;;;;;;;;;;14.30;76.12;100469.13;5050569;28;20326;-86
2022/10/11 04:37:55;;;;;;;;;;;;;;;14.43;75.29;100475.97;5053599;28;19917;-89
2022/10/11 04:40:20;;;;;;;;;;;;;;;14.50;75.33;100471.41;5051746;28;19917;-86
2022/10/11 04:42:46;;;;;;;;;;;;;;;14.65;74.82;100472.94;5050320;28;19923;-85
2022/10/11 04:45:11;;;;;;;;;;;;;;;14.78;74.00;100474.47;5050185;28;19956;-87
2022/10/11 04:47:39;;;;;;;;;;;;;;;14.75;74.44;100478.94;5048719;28;20298;-87
2022/10/11 04:50:04;;;;;;;;;;;;;;;14.75;74.66;100484.25;5049191;28;19920;-87
2022/10/11 04:52:30;;;;;;;;;;;;;;;14.74;74.15;100485.19;5049231;28;19917;-86
2022/10/11 04:54:55;;;;;;;;;;;;;;;14.90;73.77;100475.09;5049802;28;19916;-85
2022/10/11 04:57:20;;;;;;;;;;;;;;;14.79;73.80;100473.53;5049225;28;20010;-84
2022/10/11 04:59:47;;;;;;;;;;;;;;;14.87;73.73;100476.03;5048501;28;19916;-85
2022/10/11 05:02:13;;;;;;;;;;;;;;;14.98;73.36;100484.69;5049435;28;19970;-84
2022/10/11 05:04:38;;;;;;;;;;;;;;;15.02;73.41;100481.03;5050308;28;20298;-90
2022/10/11 05:07:05;;;;;;;;;;;;;;;15.09;73.35;100487.13;5048168;28;19943;-88
2022/10/11 05:09:30;;;;;;;;;;;;;;;15.04;73.70;100484.56;5048080;28;19921;-87
2022/10/11 05:11:56;;;;;;;;;;;;;;;15.24;73.62;100490.34;5047900;28;19916;-90
2022/10/11 05:14:21;;;;;;;;;;;;;;;15.35;73.26;100481.25;5046098;28;19974;-87
2022/10/11 05:16:46;;;;;;;;;;;;;;;15.45;72.14;100481.91;5048062;28;19924;-87
2022/10/11 05:19:12;;;;;;;;;;;;;;;15.57;71.88;100481.63;5048669;28;19920;-87
2022/10/11 05:21:37;;;;;;;;;;;;;;;15.60;72.07;100480.69;5046286;28;20449;-88
2022/10/11 05:24:02;;;;;;;;;;;;;;;15.73;71.54;100483.91;5047551;28;20449;-88
2022/10/11 05:26:28;;;;;;;;;;;;;;;15.88;71.13;100482.69;5047749;28;19917;-86
2022/10/11 05:28:53;;;;;;;;;;;;;;;15.94;70.89;100482.53;5047416;28;20375;-88
2022/10/11 05:31:19;;;;;;;;;;;;;;;16.05;69.99;100475.19;5047874;28;20393;-89
2022/10/11 05:33:44;;;;;;;;;;;;;;;16.05;69.79;100475.19;5047700;28;19916;-87
2022/10/11 05:36:10;;;;;;;;;;;;;;;16.11;69.19;100474.13;5046680;28;20298;-88
2022/10/11 05:38:36;;;;;;;;;;;;;;;16.01;69.32;100468.19;5047466;28;19925;-87
2022/10/11 05:41:02;;;;;;;;;;;;;;;16.09;68.99;100482.16;5048472;28;20015;-88
2022/10/11 05:43:28;;;;;;;;;;;;;;;16.08;69.38;100476.88;5048278;28;19920;-89
2022/10/11 05:45:54;;;;;;;;;;;;;;;16.15;69.11;100478.47;5047228;28;19921;-87
2022/10/11 05:48:19;;;;;;;;;;;;;;;16.24;69.14;100472.91;5048113;28;20715;-89
2022/10/11 05:50:46;;;;;;;;;;;;;;;16.19;69.40;100468.63;5047465;28;19971;-89
2022/10/11 05:53:11;;;;;;;;;;;;;;;16.27;69.32;100487.94;5045307;28;19921;-88
2022/10/11 05:55:38;;;;;;;;;;;;;;;16.42;68.78;100482.22;5047738;28;20461;-89
2022/10/11 05:58:04;;;;;;;;;;;;;;;16.36;69.14;100479.72;5047568;28;19921;-88
2022/10/11 06:00:29;;;;;;;;;;;;;;;16.08;69.86;100479.53;5047891;28;20440;-89
2022/10/11 06:02:56;;;;;;;;;;;;;;;16.15;70.61;100489.13;5047710;28;19927;-90
2022/10/11 06:05:21;;;;;;;;;;;;;;;15.97;70.42;100495.75;5047049;28;20450;-88
2022/10/11 06:07:47;;;;;;;;;;;;;;;16.08;70.44;100498.16;5047134;28;20003;-87
2022/10/11 06:10:12;;;;;;;;;;;;;;;16.20;69.97;100494.31;5047111;28;20402;-87
2022/10/11 06:12:37;;;;;;;;;;;;;;;16.01;70.75;100492.13;5047829;28;19924;-86
2022/10/11 06:15:03;;;;;;;;;;;;;;;16.02;71.32;100491.22;5047819;28;19920;-88
2022/10/11 06:17:28;;;;;;;;;;;;;;;16.01;71.44;100499.25;5047522;28;19927;-87
2022/10/11 06:19:54;;;;;;;;;;;;;;;16.06;71.48;100494.69;5047619;28;19913;-86
2022/10/11 06:22:43;;;;;;;;;;;;;;;16.09;71.04;100499.91;5050604;28;20015;-87
2022/10/11 06:25:09;;;;;;;;;;;;;;;16.31;70.19;100502.91;5048939;28;20007;-87
2022/10/11 06:27:35;;;;;;;;;;;;;;;16.27;70.54;100503.91;5063150;28;19919;-87
2022/10/11 06:30:00;;;;;;;;;;;;;;;16.45;70.12;100502.53;5047539;28;20387;-86
2022/10/11 06:32:26;;;;;;;;;;;;;;;16.33;70.13;100503.75;5047699;28;19913;-87
2022/10/11 06:34:52;;;;;;;;;;;;;;;16.14;70.68;100508.66;5047363;28;19909;-86
2022/10/11 06:37:17;;;;;;;;;;;;;;;16.21;70.42;100501.41;5047339;28;19948;-87
2022/10/11 06:39:42;;;;;;;;;;;;;;;16.22;70.94;100506.69;5047259;28;20386;-86
2022/10/11 06:42:09;;;;;;;;;;;;;;;16.21;70.95;100504.94;5047699;28;19916;-87
2022/10/11 06:44:34;;;;;;;;;;;;;;;16.31;70.09;100513.56;5047038;28;20904;-87
2022/10/11 06:47:00;;;;;;;;;;;;;;;16.21;70.46;100504.94;5045420;28;19918;-87
2022/10/11 06:49:25;;;;;;;;;;;;;;;16.21;70.35;100522.72;5047464;28;20330;-87
2022/10/11 06:51:52;;;;;;;;;;;;;;;16.30;70.25;100517.16;5047340;28;20028;-87
2022/10/11 06:54:17;;;;;;;;;;;;;;;16.60;69.57;100512.78;5047529;28;19924;-88
2022/10/11 06:56:44;;;;;;;;;;;;;;;16.58;69.38;100519.94;5047516;28;19917;-85
2022/10/11 06:59:10;;;;;;;;;;;;;;;16.72;68.94;100521.38;5047027;28;19919;-88
2022/10/11 07:01:36;;;;;;;;;;;;;;;16.83;68.46;100516.63;5047322;28;19923;-87
2022/10/11 07:04:01;;;;;;;;;;;;;;;16.62;68.54;100518.06;5046940;28;20405;-87
2022/10/11 07:06:27;;;;;;;;;;;;;;;16.73;68.81;100509.78;5047365;28;19962;-87
2022/10/11 07:08:53;;;;;;;;;;;;;;;16.59;68.71;100508.41;5047213;28;20031;-87
2022/10/11 07:11:20;;;;;;;;;;;;;;;16.71;68.86;100515.16;5046854;28;20302;-89
2022/10/11 07:13:59;;;;;;;;;;;;;;;16.77;67.95;100516.78;5047121;28;20367;-87
2022/10/11 07:16:24;;;;;;;;;;;;;;;16.48;69.07;100515.78;5046682;28;19921;-87
2022/10/11 07:18:57;;;;;;;;;;;;;;;16.56;68.87;100508.47;5047185;28;19974;-88
2022/10/11 07:21:22;;;;;;;;;;;;;;;16.70;69.00;100509.88;5047168;28;19916;-88
2022/10/11 07:23:47;;;;;;;;;;;;;;;16.80;69.14;100514.03;5046650;28;19953;-90
2022/10/11 07:26:13;;;;;;;;;;;;;;;16.94;68.27;100503.91;5047603;28;20500;-90
2022/10/11 07:28:38;;;;;;;;;;;;;;;16.92;68.47;100495.09;5046696;28;19917;-91
2022/10/11 07:31:14;;;;;;;;;;;;;;;17.30;67.11;100494.88;5047541;28;20306;-88
2022/10/11 07:33:40;;;;;;;;;;;;;;;17.23;67.09;100496.84;5047304;28;19916;-89
2022/10/11 07:36:06;;;;;;;;;;;;;;;17.52;66.16;100495.97;5047122;28;19927;-88
2022/10/11 07:38:32;;;;;;;;;;;;;;;17.44;65.97;100498.00;5045810;28;20441;-91
2022/10/11 07:40:57;;;;;;;;;;;;;;;17.64;65.63;100493.81;5046927;28;19917;-87
2022/10/11 07:43:23;;;;;;;;;;;;;;;17.75;65.08;100502.38;5049504;28;19963;-88
2022/10/11 07:45:51;;;;;;;;;;;;;;;17.86;65.00;100502.03;5049049;28;19916;-89
2022/10/11 07:48:17;;;;;;;;;;;;;;;17.97;64.54;100502.59;5057199;28;19916;-91
2022/10/11 07:50:42;;;;;;;;;;;;;;;18.03;64.37;100501.53;5071786;28;19917;-91
2022/10/11 07:53:08;;;;;;;;;;;;;;;17.95;64.42;100509.78;5055091;28;19935;-91
2022/10/11 07:55:38;;;;;;;;;;;;;;;17.68;65.04;100501.69;5047180;28;20054;-89
2022/10/11 07:58:04;;;;;;;;;;;;;;;17.91;65.55;100500.13;5062076;28;19935;-90
2022/10/11 08:00:32;;;;;;;;;;;;;;;17.87;64.61;100495.75;5050779;28;19916;-90
2022/10/11 08:03:00;;;;;;;;;;;;;;;18.06;64.46;100496.94;5050525;28;20011;-91
2022/10/11 08:05:25;;;;;;;;;;;;;;;18.06;63.82;100488.94;5050401;28;19924;-90
2022/10/11 08:07:50;;;;;;;;;;;;;;;18.25;63.98;100482.97;5050261;28;19917;-90
2022/10/11 08:10:16;;;;;;;;;;;;;;;18.40;63.49;100494.94;5050627;28;19917;-90
2022/10/11 08:12:45;;;;;;;;;;;;;;;18.46;62.78;100497.41;5049081;28;19939;-90
2022/10/11 08:15:11;;;;;;;;;;;;;;;18.47;62.58;100487.56;5050290;28;19955;-91
2022/10/11 08:17:36;;;;;;;;;;;;;;;17.99;63.93;100486.53;5049077;28;20021;-89
2022/10/11 08:20:01;;;;;;;;;;;;;;;18.04;64.33;100485.44;5051122;28;19916;-90
2022/10/11 08:22:27;;;;;;;;;;;;;;;18.01;64.53;100487.34;5051392;28;19917;-90
2022/10/11 08:24:53;;;;;;;;;;;;;;;17.82;65.30;100487.91;5052072;28;19927;-90
2022/10/11 08:27:20;;;;;;;;;;;;;;;18.11;64.58;100488.78;5052219;28;19916;-91
2022/10/11 08:29:46;;;;;;;;;;;;;;;18.09;63.92;100485.31;5053209;28;19917;-91
2022/10/11 08:32:12;;;;;;;;;;;;;;;18.45;62.98;100484.09;5052768;28;19916;-90
2022/10/11 08:34:37;;;;;;;;;;;;;;;18.43;63.45;100486.81;5056312;28;19939;-91
2022/10/11 08:37:02;;;;;;;;;;;;;;;18.32;63.16;100481.84;5070427;28;20427;-92
2022/10/11 08:39:28;;;;;;;;;;;;;;;18.32;63.49;100470.28;5066523;28;19913;-87
2022/10/11 08:41:56;;;;;;;;;;;;;;;18.61;62.46;100486.16;5061294;28;19996;-89
2022/10/11 08:44:31;;;;;;;;;;;;;;;18.73;62.25;100492.84;5049930;28;19920;-91
2022/10/11 08:46:59;;;;;;;;;;;;;;;18.82;61.64;100496.13;5050533;28;19943;-91
2022/10/11 08:49:28;;;;;;;;;;;;;;;18.70;61.89;100487.63;5050568;28;19916;-90
2022/10/11 08:51:59;;;;;;;;;;;;;;;18.76;61.87;100484.72;5051806;28;19916;-92
2022/10/11 08:54:33;;;;;;;;;;;;;;;18.88;61.65;100483.44;5051471;28;20359;-89
2022/10/11 08:56:59;;;;;;;;;;;;;;;18.70;61.75;100484.06;5049895;28;19916;-89
2022/10/11 08:59:25;;;;;;;;;;;;;;;18.73;61.50;100490.19;5049919;28;19913;-89
2022/10/11 09:01:58;;;;;;;;;;;;;;;18.82;62.04;100488.97;5048144;28;19966;-89
2022/10/11 09:04:23;;;;;;;;;;;;;;;18.82;61.34;100477.44;5052384;28;19913;-89
2022/10/11 09:06:48;;;;;;;;;;;;;;;19.13;60.68;100482.53;5046090;28;20054;-90
2022/10/11 09:09:24;;;;;;;;;;;;;;;19.23;60.24;100493.72;5035106;28;19913;-89
2022/10/11 09:12:02;;;;;;;;;;;;;;;19.31;59.97;100481.81;5048740;28;19956;-90
2022/10/11 09:14:33;;;;;;;;;;;;;;;19.47;59.67;100479.41;5052331;28;19917;-89
2022/10/11 09:17:10;;;;;;;;;;;;;;;19.53;58.78;100472.94;5051670;28;20397;-89
2022/10/11 09:19:35;;;;;;;;;;;;;;;19.44;59.14;100474.16;5051106;28;19928;-89
2022/10/11 09:22:13;;;;;;;;;;;;;;;19.56;58.79;100466.63;5049259;28;19916;-90
2022/10/11 09:25:00;;;;;;;;;;;;;;;19.46;59.24;100461.63;5048509;28;19923;-88
2022/10/11 09:27:25;;;;;;;;;;;;;;;19.68;59.30;100460.78;5048281;28;19995;-89
2022/10/11 09:29:59;;;;;;;;;;;;;;;19.95;57.82;100458.78;5049679;28;20725;-89
2022/10/11 09:32:28;;;;;;;;;;;;;;;19.99;57.25;100460.41;5049580;28;19916;-87
2022/10/11 09:35:00;;;;;;;;;;;;;;;19.58;57.58;100462.06;5049595;28;19935;-87
2022/10/11 09:37:31;;;;;;;;;;;;;;;19.49;58.26;100457.94;5046137;28;19921;-88
2022/10/11 09:40:05;;;;;;;;;;;;;;;19.43;57.82;100453.72;5045998;28;19920;-89
2022/10/11 09:42:30;;;;;;;;;;;;;;;19.77;57.58;100460.44;5047073;28;19917;-87
2022/10/11 09:44:56;;;;;;;;;;;;;;;20.12;56.70;100459.88;5063086;28;19923;-89
2022/10/11 09:47:28;;;;;;;;;;;;;;;20.10;56.91;100454.59;5048625;28;19952;-90
2022/10/11 09:50:14;;;;;;;;;;;;;;;19.84;57.26;100456.53;5048869;28;19984;-92
2022/10/11 09:52:49;;;;;;;;;;;;;;;20.18;56.86;100462.28;5048090;28;19917;-89
2022/10/11 09:55:30;;;;;;;;;;;;;;;20.38;56.29;100446.22;5048485;28;19920;-89
2022/10/11 09:57:57;;;;;;;;;;;;;;;20.49;55.63;100444.88;5048585;28;20398;-88
2022/10/11 10:00:22;;;;;;;;;;;;;;;20.42;55.29;100441.63;5048136;28;19917;-87
2022/10/11 10:02:52;;;;;;;;;;;;;;;20.51;54.46;100440.31;5047350;28;19917;-88
2022/10/11 10:05:17;;;;;;;;;;;;;;;20.58;54.40;100445.34;5048716;28;19935;-90
2022/10/11 10:08:01;;;;;;;;;;;;;;;20.56;54.74;100432.97;5047505;28;20371;-89
2022/10/11 10:10:30;;;;;;;;;;;;;;;20.32;54.72;100432.22;5048601;28;19959;-89
2022/10/11 10:12:57;;;;;;;;;;;;;;;20.23;55.61;100424.59;5048811;28;19940;-88
2022/10/11 10:15:25;;;;;;;;;;;;;;;20.10;56.23;100425.13;5048842;28;20428;-91
2022/10/11 10:17:51;;;;;;;;;;;;;;;20.31;55.44;100417.97;5048648;28;19955;-89
2022/10/11 10:20:30;;;;;;;;;;;;;;;20.16;56.98;100415.97;5048596;28;20402;-88
2022/10/11 10:22:56;;;;;;;;;;;;;;;20.05;56.14;100427.16;5048303;28;19920;-88
2022/10/11 10:25:28;;;;;;;;;;;;;;;20.36;55.23;100415.97;5048749;28;19912;-90
2022/10/11 10:27:58;;;;;;;;;;;;;;;20.68;54.35;100407.44;5048628;28;19939;-92
2022/10/11 10:30:24;;;;;;;;;;;;;;;20.83;54.08;100401.38;5050403;28;19908;-91
2022/10/11 10:32:52;;;;;;;;;;;;;;;20.87;54.01;100399.44;5049572;28;20004;-91
2022/10/11 10:35:36;;;;;;;;;;;;;;;21.01;54.05;100399.66;5050217;28;19913;-91
2022/10/11 10:38:08;;;;;;;;;;;;;;;21.18;53.48;100392.59;5049577;28;19939;-89
2022/10/11 10:40:41;;;;;;;;;;;;;;;20.87;53.35;100396.75;5047583;28;20310;-89
2022/10/11 10:43:18;;;;;;;;;;;;;;;20.92;52.60;100386.66;5045883;28;19920;-90
2022/10/11 10:46:05;;;;;;;;;;;;;;;20.63;53.95;100382.63;5048837;28;19912;-91
2022/10/11 10:48:39;;;;;;;;;;;;;;;21.20;53.05;100374.63;5048909;28;20361;-90
2022/10/11 10:51:19;;;;;;;;;;;;;;;21.04;52.30;100385.22;5046533;28;19917;-90
2022/10/11 10:53:56;;;;;;;;;;;;;;;21.25;51.93;100386.00;5048221;28;19920;-88
2022/10/11 10:56:32;;;;;;;;;;;;;;;21.27;51.93;100389.47;5046320;28;19928;-90
2022/10/11 10:59:16;;;;;;;;;;;;;;;21.26;51.49;100385.06;5047659;28;20001;-90
2022/10/11 11:01:50;;;;;;;;;;;;;;;21.51;51.56;100384.75;5047257;28;20432;-89
2022/10/11 11:04:18;;;;;;;;;;;;;;;21.26;53.19;100375.19;5048177;28;19921;-90
2022/10/11 11:06:49;;;;;;;;;;;;;;;21.04;53.19;100375.34;5048477;28;19917;-90
2022/10/11 11:09:24;;;;;;;;;;;;;;;21.34;52.90;100377.50;5047864;28;19931;-89
2022/10/11 11:12:07;;;;;;;;;;;;;;;21.26;51.61;100368.97;5049308;28;19917;-88
2022/10/11 11:14:38;;;;;;;;;;;;;;;21.41;52.00;100367.31;5050931;28;19912;-90
2022/10/11 11:17:14;;;;;;;;;;;;;;;21.39;53.28;100362.03;5051723;28;20011;-91
2022/10/11 11:19:48;;;;;;;;;;;;;;;21.00;51.68;100359.50;5056832;28;19916;-91
2022/10/11 11:22:26;;;;;;;;;;;;;;;21.44;50.82;100357.31;5055700;28;19916;-91
2022/10/11 11:24:51;;;;;;;;;;;;;;;21.51;51.19;100349.00;5055581;28;19916;-91
2022/10/11 11:27:16;;;;;;;;;;;;;;;21.47;51.16;100340.19;5063831;28;19944;-93
2022/10/11 11:29:42;;;;;;;;;;;;;;;21.39;50.99;100335.19;5065698;28;19932;-93
2022/10/11 11:32:16;;;;;;;;;;;;;;;21.54;50.09;100338.09;5060115;28;19916;-91
2022/10/11 11:34:57;;;;;;;;;;;;;;;21.43;51.55;100328.75;5051692;28;19913;-89
2022/10/11 11:37:22;;;;;;;;;;;;;;;21.43;50.91;100325.19;5051106;28;19999;-90
2022/10/11 11:39:49;;;;;;;;;;;;;;;21.59;51.32;100325.31;5050573;28;20379;-88
2022/10/11 11:42:18;;;;;;;;;;;;;;;21.40;50.45;100319.97;5051223;28;19944;-90
2022/10/11 11:44:45;;;;;;;;;;;;;;;21.31;51.34;100320.44;5065653;28;19939;-89
2022/10/11 11:47:11;;;;;;;;;;;;;;;21.57;51.93;100319.16;5050617;28;19917;-88
2022/10/11 11:49:41;;;;;;;;;;;;;;;21.83;51.04;100325.88;5051019;28;19966;-89
2022/10/11 11:52:12;;;;;;;;;;;;;;;21.72;50.74;100334.50;5050657;28;19916;-88
2022/10/11 11:54:53;;;;;;;;;;;;;;;21.65;50.99;100327.69;5051441;28;19913;-89
2022/10/11 11:57:34;;;;;;;;;;;;;;;21.66;53.07;100328.53;5048821;28;19919;-89
2022/10/11 12:00:11;;;;;;;;;;;;;;;21.80;50.89;100320.66;5050953;28;19917;-89
2022/10/11 12:02:54;;;;;;;;;;;;;;;21.25;51.95;100319.78;5051151;28;19924;-92
2022/10/11 12:05:21;;;;;;;;;;;;;;;21.20;52.17;100310.25;5050921;28;20014;-91
2022/10/11 12:08:05;;;;;;;;;;;;;;;21.50;51.18;100323.09;5050752;28;19917;-92
2022/10/11 12:10:36;;;;;;;;;;;;;;;21.50;51.58;100326.63;5051202;28;19916;-89
2022/10/11 12:13:07;;;;;;;;;;;;;;;21.34;52.12;100320.28;5050819;28;19917;-91
2022/10/11 12:15:32;;;;;;;;;;;;;;;21.17;52.79;100321.97;5065817;28;19916;-91
2022/10/11 12:17:58;;;;;;;;;;;;;;;21.07;52.04;100318.88;5050464;28;19913;-88
2022/10/11 12:20:24;;;;;;;;;;;;;;;20.93;52.55;100311.50;5051053;28;20074;-92
2022/10/11 12:22:50;;;;;;;;;;;;;;;20.86;52.90;100314.56;5051468;28;19912;-91
2022/10/11 12:25:21;;;;;;;;;;;;;;;20.92;51.49;100315.13;5049394;28;19921;-89
2022/10/11 12:27:46;;;;;;;;;;;;;;;21.20;50.69;100310.25;5049927;28;20310;-91
2022/10/11 12:30:30;;;;;;;;;;;;;;;21.38;51.07;100312.00;5051574;28;19916;-89
2022/10/11 12:33:04;;;;;;;;;;;;;;;21.12;51.75;100302.56;5051652;28;19921;-89
2022/10/11 12:35:29;;;;;;;;;;;;;;;21.01;51.84;100304.91;5050215;28;19923;-89
2022/10/11 12:38:02;;;;;;;;;;;;;;;20.44;52.56;100305.75;5051107;28;20338;-90
2022/10/11 12:40:33;;;;;;;;;;;;;;;20.48;52.97;100310.03;5050094;28;19917;-91
2022/10/11 12:43:17;;;;;;;;;;;;;;;20.33;54.24;100303.56;5051633;28;19912;-89